Time;durP1;ratioP1;P1;durP2;ratioP2;P2;SDS_P1;SDS_P2;PMS_P1;PMS_P2;Temp;Humidity;BMP_temperature;BMP_pressure;BME280_temperature;BME280_humidity;BME280_pressure;Samples;Min_cycle;Max_cycle;Signal;HPM_P1;HPM_P2
2022/11/01 00:00:18;;;;;;;0.50;0.50;;;5.50;99.90;;;;;;5032735;28;20029;-71
2022/11/01 00:02:43;;;;;;;0.40;0.40;;;5.40;99.90;;;;;;5033226;28;20045;-70
2022/11/01 00:05:09;;;;;;;0.40;0.40;;;5.40;99.90;;;;;;5032595;28;20037;-71
2022/11/01 00:07:35;;;;;;;0.77;0.73;;;5.40;99.90;;;;;;5031136;28;20028;-71
2022/11/01 00:10:00;;;;;;;2.00;1.80;;;5.40;99.90;;;;;;5032513;28;20413;-70
2022/11/01 00:12:26;;;;;;;0.40;0.40;;;5.30;99.90;;;;;;5033424;28;20476;-71
2022/11/01 00:14:52;;;;;;;0.40;0.40;;;5.30;99.90;;;;;;5032603;28;20046;-71
2022/11/01 00:17:17;;;;;;;0.40;0.40;;;5.30;99.90;;;;;;5033461;28;20476;-72
2022/11/01 00:19:43;;;;;;;0.80;0.80;;;5.30;99.90;;;;;;5032913;28;20078;-71
2022/11/01 00:22:09;;;;;;;0.40;0.40;;;5.30;99.90;;;;;;5032876;28;20465;-70
2022/11/01 00:24:34;;;;;;;0.50;0.50;;;5.30;99.90;;;;;;5031192;28;20556;-71
2022/11/01 00:27:00;;;;;;;0.50;0.50;;;5.30;99.90;;;;;;5032740;28;20037;-70
2022/11/01 00:29:26;;;;;;;0.97;0.97;;;5.20;99.90;;;;;;5032451;28;20026;-70
2022/11/01 00:31:51;;;;;;;0.40;0.40;;;5.30;99.90;;;;;;5033087;28;20500;-70
2022/11/01 00:34:17;;;;;;;0.40;0.40;;;5.30;99.90;;;;;;5032558;28;20045;-71
2022/11/01 00:36:42;;;;;;;0.40;0.40;;;5.30;99.90;;;;;;5030953;28;20045;-70
2022/11/01 00:39:11;;;;;;;0.30;0.30;;;5.30;99.90;;;;;;5032586;28;20092;-72
2022/11/01 00:41:37;;;;;;;0.40;0.40;;;5.10;99.90;;;;;;5032777;28;20426;-72
2022/11/01 00:44:03;;;;;;;0.40;0.40;;;5.20;99.90;;;;;;5032479;28;20071;-71
2022/11/01 00:46:29;;;;;;;0.40;0.40;;;5.20;99.90;;;;;;5032498;28;20025;-72
2022/11/01 00:48:55;;;;;;;0.40;0.40;;;5.20;99.90;;;;;;5032205;28;20046;-71
2022/11/01 00:51:21;;;;;;;0.40;0.40;;;5.20;99.90;;;;;;5031874;28;20424;-71
2022/11/01 00:53:46;;;;;;;1.07;1.07;;;5.20;99.90;;;;;;5031924;28;20028;-71
2022/11/01 00:56:12;;;;;;;0.40;0.40;;;5.20;99.90;;;;;;5032503;28;20040;-70
2022/11/01 00:58:38;;;;;;;0.40;0.40;;;5.20;99.90;;;;;;5032162;28;20037;-70
2022/11/01 01:01:04;;;;;;;1.70;0.93;;;5.10;99.90;;;;;;5030565;28;20029;-70
2022/11/01 01:03:29;;;;;;;1.03;1.03;;;5.10;99.90;;;;;;5030946;28;20440;-71
2022/11/01 01:05:55;;;;;;;1.07;1.07;;;5.10;99.90;;;;;;5031866;28;20034;-70
2022/11/01 01:08:20;;;;;;;0.70;0.70;;;5.00;99.90;;;;;;5031749;28;20108;-70
2022/11/01 01:10:46;;;;;;;0.40;0.40;;;5.10;99.90;;;;;;5032145;28;20049;-70
2022/11/01 01:13:12;;;;;;;0.40;0.40;;;5.00;99.90;;;;;;5031924;28;20029;-71
2022/11/01 01:15:38;;;;;;;0.40;0.40;;;5.00;99.90;;;;;;5031602;28;20507;-71
2022/11/01 01:18:04;;;;;;;0.60;0.60;;;5.00;99.90;;;;;;5031160;28;20512;-71
2022/11/01 01:20:30;;;;;;;0.70;0.70;;;4.90;99.90;;;;;;5031324;28;20362;-71
2022/11/01 01:22:56;;;;;;;0.50;0.50;;;5.00;99.90;;;;;;5031856;28;20112;-70
2022/11/01 01:25:22;;;;;;;0.40;0.40;;;5.00;99.90;;;;;;5030344;28;20029;-70
2022/11/01 01:27:48;;;;;;;0.40;0.40;;;4.90;99.90;;;;;;5031509;28;20079;-71
2022/11/01 01:30:14;;;;;;;0.60;0.60;;;4.90;99.90;;;;;;5031443;28;20118;-71
2022/11/01 01:32:40;;;;;;;0.40;0.40;;;4.90;99.90;;;;;;5031736;28;20180;-71
2022/11/01 01:35:07;;;;;;;0.50;0.50;;;4.90;99.90;;;;;;5031210;28;20100;-71
2022/11/01 01:37:32;;;;;;;0.40;0.40;;;4.80;99.90;;;;;;5031851;28;20488;-70
2022/11/01 01:39:58;;;;;;;0.50;0.50;;;4.90;99.90;;;;;;5031432;28;20026;-70
2022/11/01 01:42:26;;;;;;;1.13;1.07;;;4.80;99.90;;;;;;5031677;28;20432;-71
2022/11/01 01:44:55;;;;;;;0.70;0.70;;;4.80;99.90;;;;;;5031039;28;20119;-70
2022/11/01 01:47:27;;;;;;;0.30;0.30;;;4.80;99.90;;;;;;5031490;28;20462;-71
2022/11/01 01:50:18;;;;;;;0.40;0.40;;;4.80;99.90;;;;;;5031285;28;20042;-71
2022/11/01 01:52:49;;;;;;;0.68;0.52;;;4.80;99.90;;;;;;5031651;28;20116;-70
2022/11/01 01:55:19;;;;;;;0.38;0.38;;;4.80;99.90;;;;;;5031174;28;20025;-71
2022/11/01 01:57:46;;;;;;;0.50;0.50;;;4.70;99.90;;;;;;5031283;28;20064;-71
2022/11/01 02:00:12;;;;;;;0.45;0.45;;;4.80;99.90;;;;;;5029024;28;20532;-71
2022/11/01 02:02:40;;;;;;;4.47;1.40;;;4.70;99.90;;;;;;5029728;28;20043;-71
2022/11/01 02:05:35;;;;;;;0.45;0.45;;;4.70;99.90;;;;;;5029550;28;20490;-70
2022/11/01 02:08:01;;;;;;;0.40;0.40;;;4.70;99.90;;;;;;5011194;28;20117;-71
2022/11/01 02:10:29;;;;;;;2.72;2.38;;;4.70;99.90;;;;;;5011153;28;20466;-70
2022/11/01 02:12:56;;;;;;;1.00;1.00;;;4.70;99.90;;;;;;5011103;28;20026;-71
2022/11/01 02:15:28;;;;;;;0.30;0.30;;;4.70;99.90;;;;;;5020111;28;20033;-70
2022/11/01 02:18:19;;;;;;;0.32;0.32;;;4.80;99.90;;;;;;5030831;28;20141;-70
2022/11/01 02:21:13;;;;;;;0.40;0.40;;;4.70;99.90;;;;;;5030508;28;20053;-71
2022/11/01 02:24:12;;;;;;;0.40;0.40;;;4.70;99.90;;;;;;5022538;28;20033;-70
2022/11/01 02:27:00;;;;;;;0.93;0.93;;;4.70;99.90;;;;;;5028982;28;20040;-71
2022/11/01 02:29:50;;;;;;;3.42;1.23;;;4.70;99.90;;;;;;5030406;28;20115;-71
2022/11/01 02:32:21;;;;;;;0.30;0.30;;;4.60;99.90;;;;;;5026138;28;20057;-71
2022/11/01 02:35:21;;;;;;;0.50;0.50;;;4.60;99.90;;;;;;5010870;28;20030;-70
2022/11/01 02:37:56;;;;;;;0.30;0.30;;;4.60;99.90;;;;;;5025713;28;20064;-70
2022/11/01 02:40:33;;;;;;;0.70;0.70;;;4.60;99.90;;;;;;5030349;28;20025;-71
2022/11/01 02:43:03;;;;;;;0.40;0.40;;;4.60;99.90;;;;;;5030662;28;20078;-71
2022/11/01 02:45:41;;;;;;;0.43;0.43;;;4.60;99.90;;;;;;5028811;28;20457;-71
2022/11/01 02:48:06;;;;;;;0.30;0.30;;;4.60;99.90;;;;;;5030357;28;20120;-70
2022/11/01 02:50:43;;;;;;;0.40;0.40;;;4.50;99.90;;;;;;5030413;28;20108;-71
2022/11/01 02:53:09;;;;;;;2.53;1.38;;;4.60;99.90;;;;;;5029904;28;20030;-71
2022/11/01 02:55:35;;;;;;;0.40;0.40;;;4.50;99.90;;;;;;5028895;28;20029;-70
2022/11/01 02:58:04;;;;;;;0.40;0.40;;;4.50;99.90;;;;;;5030257;28;20029;-71
2022/11/01 03:00:32;;;;;;;0.40;0.40;;;4.50;99.90;;;;;;5028441;28;20034;-71
2022/11/01 03:03:23;;;;;;;0.30;0.30;;;4.50;99.90;;;;;;5030462;28;20060;-71
2022/11/01 03:05:57;;;;;;;0.30;0.30;;;4.50;99.90;;;;;;5029826;28;20495;-71
2022/11/01 03:08:39;;;;;;;0.38;0.38;;;4.50;99.90;;;;;;5029850;28;20029;-71
2022/11/01 03:11:23;;;;;;;0.70;0.70;;;4.60;99.90;;;;;;5028883;28;20480;-71
2022/11/01 03:13:57;;;;;;;0.38;0.38;;;4.50;99.90;;;;;;5030119;28;20037;-70
2022/11/01 03:16:57;;;;;;;0.30;0.30;;;4.50;99.90;;;;;;5029887;28;20024;-71
2022/11/01 03:19:27;;;;;;;0.40;0.40;;;4.50;99.90;;;;;;5030081;28;20045;-71
2022/11/01 03:22:00;;;;;;;0.35;0.35;;;4.50;99.90;;;;;;5029922;28;20328;-70
2022/11/01 03:24:36;;;;;;;0.40;0.40;;;4.50;99.90;;;;;;5028749;28;20042;-70
2022/11/01 03:27:11;;;;;;;0.30;0.30;;;4.50;99.90;;;;;;5029706;28;20021;-71
2022/11/01 03:29:38;;;;;;;0.63;0.63;;;4.50;99.90;;;;;;5028570;28;20033;-71
2022/11/01 03:32:05;;;;;;;0.43;0.43;;;4.50;99.90;;;;;;5029513;28;20112;-69
2022/11/01 03:34:35;;;;;;;0.30;0.30;;;4.50;99.90;;;;;;5029876;28;20028;-70
2022/11/01 03:37:05;;;;;;;0.30;0.30;;;4.60;99.90;;;;;;5028223;28;20038;-70
2022/11/01 03:39:40;;;;;;;0.40;0.40;;;4.60;99.90;;;;;;5028555;28;20041;-70
2022/11/01 03:42:10;;;;;;;0.30;0.30;;;4.60;99.90;;;;;;5029906;28;20025;-70
2022/11/01 03:44:43;;;;;;;0.30;0.30;;;4.50;99.90;;;;;;5033472;28;20038;-70
2022/11/01 03:47:11;;;;;;;0.30;0.30;;;4.50;99.90;;;;;;5033445;28;20025;-70
2022/11/01 03:49:36;;;;;;;0.50;0.50;;;4.50;99.90;;;;;;5033069;28;20053;-71
2022/11/01 03:52:02;;;;;;;0.40;0.40;;;4.40;99.90;;;;;;5033651;28;20354;-71
2022/11/01 03:54:28;;;;;;;0.40;0.40;;;4.40;99.90;;;;;;5033128;28;20033;-71
2022/11/01 03:56:54;;;;;;;1.07;1.03;;;4.40;99.90;;;;;;5033510;28;20473;-71
2022/11/01 03:59:19;;;;;;;0.80;0.80;;;4.40;99.90;;;;;;5033201;28;20080;-71
2022/11/01 04:01:45;;;;;;;1.37;1.27;;;4.40;99.90;;;;;;5033051;28;20033;-71
2022/11/01 04:04:10;;;;;;;0.50;0.50;;;4.40;99.90;;;;;;5033112;28;20025;-71
2022/11/01 04:06:36;;;;;;;0.77;0.77;;;4.40;99.90;;;;;;5032937;28;20049;-69
2022/11/01 04:09:02;;;;;;;4.73;1.27;;;4.50;99.90;;;;;;5033047;28;20037;-70
2022/11/01 04:11:27;;;;;;;0.40;0.40;;;4.40;99.90;;;;;;5033262;28;20032;-71
2022/11/01 04:20:31;;;;;;;0.50;0.50;;;4.40;99.90;;;;;;5032971;28;20087;-70
2022/11/01 04:22:07;;;;;;;0.40;0.40;;;4.40;99.90;;;;;;5032811;28;20035;-72
2022/11/01 04:24:32;;;;;;;0.40;0.40;;;4.40;99.90;;;;;;5032848;28;20033;-71
2022/11/01 04:26:58;;;;;;;0.40;0.40;;;5.00;99.90;;;;;;5032755;28;20108;-71
2022/11/01 04:29:23;;;;;;;0.83;0.83;;;4.40;99.90;;;;;;5032675;28;20127;-70
2022/11/01 04:31:49;;;;;;;0.40;0.40;;;4.30;99.90;;;;;;5032707;28;20030;-70
2022/11/01 04:34:40;;;;;;;0.50;0.50;;;4.30;99.90;;;;;;5032383;28;20026;-71
2022/11/01 04:37:00;;;;;;;0.30;0.30;;;4.20;99.90;;;;;;5032357;28;20041;-70
2022/11/01 04:39:25;;;;;;;1.63;1.60;;;4.20;99.90;;;;;;5032384;28;20103;-69
2022/11/01 04:41:51;;;;;;;0.53;0.53;;;4.20;99.90;;;;;;5032753;28;20404;-71
2022/11/01 04:44:17;;;;;;;0.40;0.40;;;4.10;99.90;;;;;;5030994;28;20477;-71
2022/11/01 04:46:42;;;;;;;1.00;0.67;;;4.10;99.90;;;;;;5030971;28;20084;-71
2022/11/01 04:49:08;;;;;;;0.50;0.50;;;4.10;99.90;;;;;;5032331;28;20054;-72
2022/11/01 04:51:33;;;;;;;0.50;0.50;;;4.10;99.90;;;;;;5032550;28;20125;-71
2022/11/01 04:53:59;;;;;;;0.30;0.30;;;4.10;99.90;;;;;;5030715;28;20034;-70
2022/11/01 04:56:25;;;;;;;0.90;0.80;;;4.10;99.90;;;;;;5032478;28;20025;-70
2022/11/01 04:58:50;;;;;;;0.50;0.50;;;4.10;99.90;;;;;;5030828;28;20033;-70
2022/11/01 05:01:16;;;;;;;0.67;0.67;;;4.10;99.90;;;;;;5031916;28;20061;-72
2022/11/01 05:03:42;;;;;;;0.50;0.50;;;4.10;99.90;;;;;;5031811;28;20029;-70
2022/11/01 05:06:08;;;;;;;0.40;0.40;;;5.10;99.90;;;;;;5032219;28;20029;-71
2022/11/01 05:08:33;;;;;;;0.47;0.47;;;4.10;99.90;;;;;;5031739;28;20036;-70
2022/11/01 05:10:59;;;;;;;0.50;0.50;;;4.10;99.90;;;;;;5031948;28;20058;-70
2022/11/01 05:13:25;;;;;;;0.40;0.40;;;4.10;99.90;;;;;;5031823;28;20277;-72
2022/11/01 05:15:50;;;;;;;0.40;0.40;;;4.10;99.90;;;;;;5031789;28;20079;-71
2022/11/01 05:18:16;;;;;;;0.73;0.73;;;4.10;99.90;;;;;;5031640;28;20041;-71
2022/11/01 05:20:41;;;;;;;0.60;0.60;;;4.10;99.90;;;;;;5031578;28;20057;-70
2022/11/01 05:23:08;;;;;;;0.40;0.40;;;4.10;99.90;;;;;;5031216;28;20039;-70
2022/11/01 05:25:34;;;;;;;0.45;0.45;;;4.10;99.90;;;;;;5031328;28;20207;-71
2022/11/01 05:28:02;;;;;;;0.40;0.40;;;4.10;99.90;;;;;;5030040;28;20112;-71
2022/11/01 05:30:27;;;;;;;0.70;0.70;;;4.10;99.90;;;;;;5031414;28;20022;-70
2022/11/01 05:33:00;;;;;;;0.60;0.60;;;4.10;99.90;;;;;;5031125;28;20099;-72
2022/11/01 05:35:27;;;;;;;0.43;0.43;;;4.10;99.90;;;;;;5031266;28;20017;-71
2022/11/01 05:37:53;;;;;;;0.40;0.40;;;4.20;99.90;;;;;;5029472;28;20033;-70
2022/11/01 05:40:19;;;;;;;0.40;0.40;;;4.40;99.90;;;;;;5031409;28;20366;-70
2022/11/01 05:42:44;;;;;;;0.70;0.70;;;4.70;99.90;;;;;;5031344;28;20030;-70
2022/11/01 05:45:10;;;;;;;1.43;1.37;;;5.00;99.90;;;;;;5031164;28;20037;-72
2022/11/01 05:47:39;;;;;;;0.53;0.53;;;5.40;99.90;;;;;;5030709;28;20395;-71
2022/11/01 05:50:08;;;;;;;0.30;0.30;;;5.70;99.90;;;;;;5031239;28;20057;-71
2022/11/01 05:52:33;;;;;;;0.57;0.57;;;6.20;99.90;;;;;;5031034;28;20029;-71
2022/11/01 05:54:59;;;;;;;0.40;0.40;;;6.70;99.90;;;;;;5030686;28;20388;-70
2022/11/01 05:57:25;;;;;;;0.40;0.40;;;7.40;99.90;;;;;;5030930;28;20487;-71
2022/11/01 05:59:51;;;;;;;0.68;0.68;;;7.80;99.90;;;;;;5031058;28;20037;-71
2022/11/01 06:02:16;;;;;;;0.70;0.70;;;8.00;99.90;;;;;;5030405;28;20397;-72
2022/11/01 06:04:42;;;;;;;0.40;0.40;;;8.60;99.90;;;;;;5030248;28;20404;-70
2022/11/01 06:07:07;;;;;;;0.50;0.50;;;9.50;99.90;;;;;;5030414;28;20036;-72
2022/11/01 06:09:33;;;;;;;1.47;1.37;;;10.10;99.90;;;;;;5031386;28;20488;-72
2022/11/01 06:11:59;;;;;;;3.10;1.83;;;10.70;99.90;;;;;;5030819;28;20535;-72
2022/11/01 06:14:24;;;;;;;0.80;0.80;;;11.10;99.90;;;;;;5029643;28;20026;-72
2022/11/01 06:16:50;;;;;;;0.50;0.50;;;11.50;99.90;;;;;;5030397;28;20190;-71
2022/11/01 06:19:16;;;;;;;0.73;0.73;;;11.70;99.90;;;;;;5031131;28;20029;-71
2022/11/01 06:21:41;;;;;;;1.33;1.23;;;10.50;99.90;;;;;;5030599;28;20038;-71
2022/11/01 06:24:08;;;;;;;0.60;0.60;;;11.00;99.90;;;;;;5030611;28;20085;-71
2022/11/01 06:26:34;;;;;;;0.35;0.35;;;10.30;99.90;;;;;;5030453;28;20029;-70
2022/11/01 06:29:01;;;;;;;0.70;0.70;;;9.60;99.90;;;;;;5029506;28;20074;-72
2022/11/01 06:31:27;;;;;;;;;;;9.20;99.90;;;;;;5030686;28;20022;-71
2022/11/01 06:33:52;;;;;;;0.40;0.40;;;9.00;99.90;;;;;;5030556;28;19916;-70
2022/11/01 06:36:18;;;;;;;0.40;0.40;;;8.80;99.90;;;;;;5030786;28;20064;-71
2022/11/01 06:38:43;;;;;;;0.47;0.47;;;8.60;99.90;;;;;;5030417;28;20029;-71
2022/11/01 06:41:09;;;;;;;0.60;0.60;;;8.50;99.90;;;;;;5030041;28;20041;-71
2022/11/01 06:43:34;;;;;;;0.70;0.70;;;8.50;99.90;;;;;;5030789;28;20029;-71
2022/11/01 06:46:00;;;;;;;1.07;1.07;;;8.80;99.90;;;;;;5028662;28;20029;-71
2022/11/01 06:48:26;;;;;;;3.10;1.13;;;9.00;99.90;;;;;;5029792;28;20130;-71
2022/11/01 06:50:54;;;;;;;0.30;0.30;;;9.00;99.90;;;;;;5030250;28;20032;-70
2022/11/01 06:53:21;;;;;;;0.75;0.63;;;9.00;99.90;;;;;;5028706;28;20026;-70
2022/11/01 06:55:46;;;;;;;1.05;1.05;;;9.10;99.90;;;;;;5030485;28;20121;-71
2022/11/01 06:58:12;;;;;;;0.80;0.80;;;9.10;99.90;;;;;;5030885;28;20525;-71
2022/11/01 07:00:37;;;;;;;0.40;0.40;;;9.10;99.90;;;;;;5030375;28;20032;-70
2022/11/01 07:03:06;;;;;;;0.50;0.50;;;9.20;99.90;;;;;;5030361;28;20473;-70
2022/11/01 07:05:34;;;;;;;0.70;0.70;;;9.20;99.90;;;;;;5030299;28;20439;-71
2022/11/01 07:08:00;;;;;;;0.90;0.90;;;9.20;99.90;;;;;;5030067;28;20414;-73
2022/11/01 07:10:27;;;;;;;1.00;1.00;;;9.00;99.90;;;;;;5030542;28;20065;-72
2022/11/01 07:13:00;;;;;;;0.93;0.93;;;8.90;99.90;;;;;;5029124;28;20175;-73
2022/11/01 07:15:26;;;;;;;1.05;0.95;;;9.00;99.90;;;;;;5030421;28;20052;-73
2022/11/01 07:18:00;;;;;;;0.40;0.40;;;9.00;99.90;;;;;;5032777;28;20041;-74
2022/11/01 07:20:26;;;;;;;1.00;0.88;;;9.10;99.90;;;;;;5034184;28;20400;-71
2022/11/01 07:22:58;;;;;;;;;;;9.20;99.90;;;;;;5034402;28;20101;-71
2022/11/01 07:25:23;;;;;;;0.30;0.30;;;9.30;99.90;;;;;;5032217;28;19959;-72
2022/11/01 07:27:49;;;;;;;0.40;0.40;;;9.20;99.90;;;;;;5034025;28;20033;-72
2022/11/01 07:30:16;;;;;;;0.57;0.57;;;9.20;99.90;;;;;;5033833;28;20025;-72
2022/11/01 07:32:41;;;;;;;0.40;0.40;;;9.20;99.90;;;;;;5033740;28;20041;-72
2022/11/01 07:35:07;;;;;;;0.60;0.60;;;9.50;99.90;;;;;;5033898;28;20107;-73
2022/11/01 07:37:33;;;;;;;0.40;0.40;;;9.70;99.90;;;;;;5033964;28;20038;-73
2022/11/01 07:39:58;;;;;;;0.57;0.57;;;9.90;99.90;;;;;;5033470;28;20492;-73
2022/11/01 07:42:24;;;;;;;0.47;0.47;;;9.90;99.90;;;;;;5032551;28;20033;-73
2022/11/01 07:44:49;;;;;;;4.07;2.00;;;10.00;99.90;;;;;;5033871;28;20087;-71
2022/11/01 07:47:15;;;;;;;0.60;0.60;;;10.20;99.90;;;;;;5033365;28;20056;-71
2022/11/01 07:49:41;;;;;;;0.87;0.87;;;10.30;99.90;;;;;;5032020;28;20068;-72
2022/11/01 07:52:06;;;;;;;0.40;0.40;;;10.40;99.90;;;;;;5033543;28;20461;-72
2022/11/01 07:54:32;;;;;;;2.00;1.00;;;10.40;99.90;;;;;;5033144;28;20038;-71
2022/11/01 07:56:57;;;;;;;1.07;1.07;;;10.50;99.90;;;;;;5033516;28;20033;-71
2022/11/01 07:59:23;;;;;;;0.40;0.40;;;10.60;99.90;;;;;;5033210;28;20025;-72
2022/11/01 08:01:48;;;;;;;0.50;0.50;;;10.90;99.90;;;;;;5033407;28;20065;-71
2022/11/01 08:04:14;;;;;;;1.17;1.07;;;11.10;99.90;;;;;;5031678;28;20029;-72
2022/11/01 08:06:39;;;;;;;0.40;0.40;;;11.30;99.90;;;;;;5033277;28;20229;-71
2022/11/01 08:09:05;;;;;;;0.70;0.70;;;11.60;99.90;;;;;;5031519;28;20092;-72
2022/11/01 08:11:31;;;;;;;0.50;0.50;;;12.00;99.90;;;;;;5033191;28;20500;-71
2022/11/01 08:13:56;;;;;;;1.67;1.57;;;12.30;99.90;;;;;;5033079;28;20116;-72
2022/11/01 08:16:22;;;;;;;0.70;0.70;;;12.50;99.90;;;;;;5033480;28;20033;-72
2022/11/01 08:18:49;;;;;;;0.77;0.77;;;12.70;99.90;;;;;;5032852;28;20045;-72
2022/11/01 08:21:17;;;;;;;0.75;0.75;;;12.80;99.90;;;;;;5033293;28;20112;-72
2022/11/01 08:23:44;;;;;;;1.40;1.30;;;12.90;99.90;;;;;;5032977;28;20075;-73
2022/11/01 08:26:10;;;;;;;0.40;0.40;;;13.10;99.90;;;;;;5031246;28;20040;-72
2022/11/01 08:28:36;;;;;;;1.15;0.85;;;13.30;99.90;;;;;;5031284;28;20040;-72
2022/11/01 08:31:06;;;;;;;0.40;0.40;;;13.30;99.90;;;;;;5033384;28;20453;-72
2022/11/01 08:33:31;;;;;;;4.90;1.75;;;13.50;99.90;;;;;;5033002;28;20034;-71
2022/11/01 08:35:57;;;;;;;0.80;0.80;;;13.80;99.20;;;;;;5033052;28;20365;-73
2022/11/01 08:38:22;;;;;;;0.50;0.50;;;13.90;98.80;;;;;;5031424;28;20381;-71
2022/11/01 08:40:48;;;;;;;0.40;0.40;;;13.90;98.70;;;;;;5032438;28;20060;-71
2022/11/01 08:43:14;;;;;;;0.40;0.40;;;13.80;98.70;;;;;;5031126;28;20476;-71
2022/11/01 08:45:39;;;;;;;0.40;0.40;;;13.50;98.40;;;;;;5032781;28;20051;-71
2022/11/01 08:48:07;;;;;;;1.03;1.03;;;13.70;98.20;;;;;;5030760;28;20412;-72
2022/11/01 08:50:33;;;;;;;0.35;0.35;;;13.80;97.80;;;;;;5032536;28;20018;-71
2022/11/01 08:53:11;;;;;;;1.42;1.33;;;13.90;97.70;;;;;;5030995;28;20035;-71
2022/11/01 08:55:37;;;;;;;0.32;0.32;;;14.20;97.20;;;;;;5032107;28;20420;-72
2022/11/01 08:58:03;;;;;;;0.80;0.80;;;14.10;97.00;;;;;;5030655;28;20026;-73
2022/11/01 09:00:29;;;;;;;0.40;0.40;;;14.10;96.70;;;;;;5027779;28;20381;-69
2022/11/01 09:02:54;;;;;;;0.57;0.57;;;14.10;99.20;;;;;;5028207;28;20044;-68
2022/11/01 09:05:21;;;;;;;0.47;0.47;;;14.20;96.40;;;;;;5026727;28;20037;-68
2022/11/01 09:07:47;;;;;;;0.40;0.40;;;14.20;96.50;;;;;;5032602;28;20033;-68
2022/11/01 09:10:15;;;;;;;1.10;1.10;;;14.10;95.90;;;;;;5046899;28;20365;-66
2022/11/01 09:12:41;;;;;;;0.98;0.90;;;13.80;96.40;;;;;;5032559;28;20616;-68
2022/11/01 09:15:07;;;;;;;0.52;0.52;;;13.90;96.20;;;;;;5031273;28;20381;-67
2022/11/01 09:17:33;;;;;;;4.23;3.93;;;14.00;96.00;;;;;;5031912;28;20030;-70
2022/11/01 09:19:59;;;;;;;0.40;0.40;;;13.90;96.30;;;;;;5028843;28;20033;-69
2022/11/01 09:22:25;;;;;;;0.40;0.40;;;13.70;96.60;;;;;;5028427;28;20031;-68
2022/11/01 09:24:51;;;;;;;0.40;0.40;;;13.70;96.60;;;;;;5027211;28;20397;-67
2022/11/01 09:27:16;;;;;;;0.40;0.40;;;13.70;96.60;;;;;;5027819;28;20038;-67
2022/11/01 09:29:42;;;;;;;0.60;0.60;;;13.60;95.80;;;;;;5019727;28;20029;-67
2022/11/01 09:32:07;;;;;;;6.10;2.10;;;13.30;96.10;;;;;;5024790;28;20029;-67
2022/11/01 09:34:34;;;;;;;0.47;0.47;;;13.00;96.40;;;;;;5027584;28;20704;-68
2022/11/01 09:36:59;;;;;;;0.40;0.40;;;12.70;97.00;;;;;;5011515;28;20500;-68
2022/11/01 09:39:26;;;;;;;0.37;0.37;;;12.60;96.70;;;;;;5033210;28;20149;-69
2022/11/01 09:41:58;;;;;;;0.50;0.50;;;12.70;97.40;;;;;;5034930;28;20411;-67
2022/11/01 09:44:30;;;;;;;0.50;0.50;;;12.80;97.30;;;;;;5026064;28;20478;-69
2022/11/01 09:47:02;;;;;;;0.60;0.60;;;13.00;96.90;;;;;;5028384;28;20079;-67
2022/11/01 09:49:32;;;;;;;0.52;0.52;;;13.00;96.90;;;;;;5024273;28;20049;-69
2022/11/01 09:51:58;;;;;;;0.40;0.40;;;13.10;96.90;;;;;;5019863;28;20444;-68
2022/11/01 09:54:26;;;;;;;0.40;0.40;;;13.20;96.40;;;;;;5029420;28;20528;-69
2022/11/01 09:56:54;;;;;;;0.60;0.60;;;13.10;96.40;;;;;;5029139;28;20037;-68
2022/11/01 09:59:53;;;;;;;0.30;0.30;;;13.10;96.70;;;;;;5037677;28;20034;-68
2022/11/01 10:02:39;;;;;;;0.73;0.73;;;13.10;96.20;;;;;;5022215;28;20544;-66
2022/11/01 10:05:16;;;;;;;1.00;0.60;;;13.00;96.90;;;;;;5020744;28;20030;-69
2022/11/01 10:08:19;;;;;;;1.40;1.27;;;13.00;96.70;;;;;;5027933;28;20446;-69
2022/11/01 10:11:21;;;;;;;1.40;0.60;;;13.00;97.10;;;;;;5026493;28;20314;-67
2022/11/01 10:13:47;;;;;;;0.30;0.30;;;13.10;97.10;;;;;;5025445;28;20025;-68
2022/11/01 10:16:37;;;;;;;0.70;0.70;;;13.30;96.90;;;;;;5033009;28;20028;-68
2022/11/01 10:19:03;;;;;;;17.52;3.25;;;13.60;96.80;;;;;;5026410;28;20029;-67
2022/11/01 10:21:41;;;;;;;0.70;0.70;;;13.80;96.10;;;;;;5029376;28;20036;-68
2022/11/01 10:24:17;;;;;;;1.02;1.02;;;14.00;95.90;;;;;;5024923;28;20043;-67
2022/11/01 10:26:46;;;;;;;1.15;1.15;;;13.70;96.20;;;;;;5022679;28;20069;-66
2022/11/01 10:29:25;;;;;;;1.33;1.27;;;14.00;96.50;;;;;;5028273;28;20109;-67
2022/11/01 10:31:52;;;;;;;0.50;0.50;;;14.00;95.30;;;;;;5020671;28;20114;-66
2022/11/01 10:34:38;;;;;;;0.47;0.47;;;13.90;94.70;;;;;;5026907;28;20032;-66
2022/11/01 10:37:33;;;;;;;0.45;0.45;;;13.70;94.30;;;;;;5022363;28;20041;-66
2022/11/01 10:40:08;;;;;;;0.30;0.30;;;13.50;94.90;;;;;;5021768;28;20030;-67
2022/11/01 10:42:33;;;;;;;0.35;0.35;;;13.50;94.20;;;;;;5026296;28;20029;-66
2022/11/01 10:45:10;;;;;;;0.53;0.53;;;13.60;94.00;;;;;;5026956;28;21693;-72
2022/11/01 10:47:36;;;;;;;13.27;1.00;;;13.70;93.20;;;;;;5025912;28;20111;-68
2022/11/01 10:50:23;;;;;;;0.90;0.90;;;13.60;93.10;;;;;;5018632;28;20053;-67
2022/11/01 10:53:17;;;;;;;0.60;0.60;;;13.70;93.50;;;;;;5029440;28;20045;-67
2022/11/01 10:55:49;;;;;;;0.85;0.85;;;13.80;93.70;;;;;;5032209;28;20038;-67
2022/11/01 10:58:33;;;;;;;0.30;0.30;;;14.00;93.70;;;;;;5029454;28;20120;-67
2022/11/01 11:01:02;;;;;;;0.52;0.52;;;14.20;93.20;;;;;;5023314;28;20025;-66
2022/11/01 11:03:31;;;;;;;0.30;0.30;;;14.20;93.60;;;;;;5028700;28;20030;-67
2022/11/01 11:06:00;;;;;;;0.93;0.90;;;14.20;93.70;;;;;;5030209;28;20080;-66
2022/11/01 11:08:26;;;;;;;0.43;0.43;;;14.20;93.40;;;;;;5029452;28;20477;-66
2022/11/01 11:10:51;;;;;;;1.27;1.17;;;14.20;93.10;;;;;;5028490;28;20036;-67
2022/11/01 11:13:23;;;;;;;0.30;0.30;;;14.20;93.10;;;;;;5031102;28;20311;-65
2022/11/01 11:16:01;;;;;;;0.45;0.45;;;14.30;92.60;;;;;;5028590;28;20099;-66
2022/11/01 11:18:26;;;;;;;0.40;0.40;;;14.20;92.70;;;;;;5029038;28;20029;-67
2022/11/01 11:20:56;;;;;;;1.33;1.27;;;14.00;92.00;;;;;;5025976;28;20397;-69
2022/11/01 11:23:22;;;;;;;0.50;0.50;;;14.10;92.40;;;;;;5022970;28;20056;-68
2022/11/01 11:25:49;;;;;;;0.40;0.40;;;14.20;92.30;;;;;;5030252;28;20518;-68
2022/11/01 11:28:26;;;;;;;0.63;0.63;;;14.10;92.40;;;;;;5022284;28;20056;-69
2022/11/01 11:30:52;;;;;;;4.00;0.77;;;14.10;92.50;;;;;;5027209;28;20069;-68
2022/11/01 11:33:18;;;;;;;0.50;0.50;;;14.10;92.80;;;;;;5029385;28;20029;-68
2022/11/01 11:35:54;;;;;;;0.40;0.40;;;14.10;93.00;;;;;;5026820;28;20030;-68
2022/11/01 11:38:47;;;;;;;0.30;0.30;;;14.20;92.10;;;;;;5018446;28;20038;-68
2022/11/01 11:41:35;;;;;;;0.50;0.50;;;14.20;92.30;;;;;;5025178;28;20036;-67
2022/11/01 11:44:01;;;;;;;0.63;0.63;;;14.10;91.90;;;;;;5021004;28;20030;-68
2022/11/01 11:46:27;;;;;;;0.40;0.40;;;13.90;91.60;;;;;;5029362;28;20393;-69
2022/11/01 11:49:05;;;;;;;0.50;0.50;;;13.60;91.90;;;;;;5027948;28;20076;-67
2022/11/01 11:51:37;;;;;;;0.45;0.45;;;13.40;91.70;;;;;;5022461;28;20042;-68
2022/11/01 11:54:21;;;;;;;0.70;0.70;;;13.20;91.80;;;;;;5024959;28;20033;-67
2022/11/01 11:56:52;;;;;;;0.60;0.60;;;13.10;92.20;;;;;;5026168;28;20048;-67
2022/11/01 11:59:26;;;;;;;0.30;0.30;;;13.00;92.30;;;;;;5021012;28;20105;-67
2022/11/01 12:02:04;;;;;;;0.30;0.30;;;12.90;92.70;;;;;;5021933;28;20041;-66
2022/11/01 12:04:45;;;;;;;0.30;0.30;;;12.70;93.10;;;;;;5023659;28;20017;-68
2022/11/01 12:07:33;;;;;;;0.70;0.70;;;12.70;93.40;;;;;;5028040;28;20465;-67
2022/11/01 12:10:01;;;;;;;0.47;0.47;;;12.60;93.50;;;;;;5028140;28;20075;-68
2022/11/01 12:12:39;;;;;;;0.60;0.60;;;12.50;93.30;;;;;;5028001;28;20782;-67
2022/11/01 12:15:27;;;;;;;1.08;0.98;;;12.40;93.20;;;;;;5030098;28;20048;-67
2022/11/01 12:17:53;;;;;;;0.40;0.40;;;12.40;93.40;;;;;;5031360;28;20084;-67
2022/11/01 12:20:21;;;;;;;0.30;0.30;;;12.30;93.80;;;;;;5027685;28;20320;-67
2022/11/01 12:22:53;;;;;;;0.88;0.88;;;12.30;93.80;;;;;;5026896;28;20041;-66
2022/11/01 12:25:22;;;;;;;2.92;0.70;;;12.20;93.30;;;;;;5018793;28;20030;-66
2022/11/01 12:27:56;;;;;;;0.47;0.47;;;12.20;93.20;;;;;;5027313;28;20033;-67
2022/11/01 12:30:25;;;;;;;0.60;0.60;;;12.20;93.40;;;;;;5023825;28;20038;-67
2022/11/01 12:32:53;;;;;;;0.40;0.40;;;12.20;93.20;;;;;;5029849;28;20022;-67
2022/11/01 12:35:27;;;;;;;0.47;0.47;;;12.20;93.40;;;;;;5028998;28;20448;-66
2022/11/01 12:37:58;;;;;;;0.35;0.35;;;12.10;93.40;;;;;;5026394;28;20048;-67
2022/11/01 12:40:30;;;;;;;0.77;0.77;;;12.00;93.50;;;;;;5021234;28;20081;-65
2022/11/01 12:43:02;;;;;;;1.65;0.85;;;12.10;93.40;;;;;;5029991;28;20465;-65
2022/11/01 12:45:31;;;;;;;0.30;0.30;;;12.10;93.50;;;;;;5028027;28;20034;-66
2022/11/01 12:48:02;;;;;;;0.30;0.30;;;12.00;93.50;;;;;;5025219;28;20060;-66
2022/11/01 12:50:42;;;;;;;0.73;0.73;;;11.90;93.70;;;;;;5026667;28;20036;-66
2022/11/01 12:53:17;;;;;;;0.75;0.75;;;11.90;93.70;;;;;;5021885;28;20022;-65
2022/11/01 12:55:43;;;;;;;0.65;0.65;;;11.90;93.70;;;;;;5016235;28;20378;-65
2022/11/01 12:58:13;;;;;;;0.53;0.53;;;11.90;93.80;;;;;;5020391;28;20030;-65
2022/11/01 13:01:07;;;;;;;0.52;0.52;;;11.90;93.80;;;;;;5013267;28;20165;-65
2022/11/01 13:04:09;;;;;;;0.40;0.40;;;11.90;93.90;;;;;;5027973;28;20432;-66
2022/11/01 13:06:57;;;;;;;0.68;0.68;;;12.00;94.30;;;;;;5020642;28;20037;-66
2022/11/01 13:09:32;;;;;;;0.40;0.40;;;12.00;94.60;;;;;;5015780;28;20057;-68
2022/11/01 13:12:25;;;;;;;0.88;0.88;;;12.10;95.90;;;;;;5016498;28;20156;-65